createdAt,value
2023-04-03T00:01:15.063Z,89.71
2023-04-03T00:03:42.703Z,89.90
2023-04-03T00:06:12.176Z,89.63
2023-04-03T00:08:41.296Z,89.29
2023-04-03T00:11:10.571Z,89.11
2023-04-03T00:13:39.133Z,88.88
2023-04-03T00:16:07.817Z,88.83
2023-04-03T00:18:35.438Z,88.87
2023-04-03T00:21:02.525Z,88.71
2023-04-03T00:23:29.539Z,88.67
2023-04-03T00:25:56.813Z,88.58
2023-04-03T00:28:24.032Z,88.44
2023-04-03T00:30:51.600Z,88.22
2023-04-03T00:33:22.520Z,88.06
2023-04-03T00:35:50.622Z,88.17
2023-04-03T00:38:18.968Z,87.92
2023-04-03T00:40:49.507Z,88.03
2023-04-03T00:43:24.354Z,88.05
2023-04-03T00:45:54.912Z,87.94
2023-04-03T00:48:44.784Z,87.95
2023-04-03T00:51:25.483Z,87.82
2023-04-03T00:54:11.339Z,87.77
2023-04-03T00:56:39.416Z,87.77
2023-04-03T00:59:16.061Z,87.66
2023-04-03T01:01:44.149Z,87.69
2023-04-03T01:04:38.434Z,87.77
2023-04-03T01:07:16.285Z,87.73
2023-04-03T01:09:45.697Z,87.66
2023-04-03T01:12:46.676Z,87.54
2023-04-03T01:15:21.793Z,87.50
2023-04-03T01:17:57.905Z,87.46
2023-04-03T01:20:37.521Z,87.47
2023-04-03T01:23:13.199Z,87.44
2023-04-03T01:25:49.818Z,87.55
2023-04-03T01:28:28.093Z,87.50
2023-04-03T01:31:36.834Z,87.66
2023-04-03T01:34:04.564Z,87.59
2023-04-03T01:36:33.092Z,87.52
2023-04-03T01:39:01.287Z,87.66
2023-04-03T01:41:30.360Z,87.50
2023-04-03T01:44:05.414Z,87.66
2023-04-03T01:46:32.989Z,87.65
2023-04-03T01:49:00.275Z,87.72
2023-04-03T01:51:27.313Z,87.75
2023-04-03T01:53:54.384Z,87.85
2023-04-03T01:56:21.434Z,87.85
2023-04-03T01:58:49.293Z,88.00
2023-04-03T02:01:16.516Z,88.05
2023-04-03T02:03:43.591Z,87.93
2023-04-03T02:06:12.693Z,88.14
2023-04-03T02:08:39.996Z,88.16
2023-04-03T02:11:07.590Z,88.40
2023-04-03T02:13:34.693Z,88.36
2023-04-03T02:16:09.525Z,88.26
2023-04-03T02:18:37.146Z,88.48
2023-04-03T02:21:04.389Z,88.58
2023-04-03T02:23:31.430Z,88.73
2023-04-03T02:26:07.915Z,88.83
2023-04-03T02:28:35.788Z,88.86
2023-04-03T02:31:04.653Z,88.84
2023-04-03T02:33:32.087Z,88.84
2023-04-03T02:36:00.680Z,88.97
2023-04-03T02:38:27.949Z,88.89
2023-04-03T02:41:05.386Z,88.95
2023-04-03T02:43:33.041Z,88.93
2023-04-03T02:46:00.403Z,88.92
2023-04-03T02:48:28.606Z,89.02
2023-04-03T02:50:56.364Z,89.06
2023-04-03T02:53:23.963Z,89.00
2023-04-03T02:55:51.978Z,88.95
2023-04-03T02:58:19.162Z,89.15
2023-04-03T03:00:46.372Z,89.21
2023-04-03T03:03:15.080Z,89.12
2023-04-03T03:05:42.178Z,89.32
2023-04-03T03:08:09.196Z,89.22
2023-04-03T03:10:36.296Z,89.34
2023-04-03T03:13:03.536Z,89.36
2023-04-03T03:15:30.828Z,89.31
2023-04-03T03:17:57.814Z,89.48
2023-04-03T03:20:24.881Z,89.43
2023-04-03T03:22:51.905Z,89.33
2023-04-03T03:25:18.949Z,89.13
2023-04-03T03:27:46.794Z,89.23
2023-04-03T03:30:13.818Z,89.22
2023-04-03T03:32:40.932Z,89.21
2023-04-03T03:35:08.538Z,89.36
2023-04-03T03:37:35.785Z,89.36
2023-04-03T03:40:03.526Z,89.48
2023-04-03T03:42:31.820Z,89.38
2023-04-03T03:44:58.837Z,89.39
2023-04-03T03:47:26.432Z,89.43
2023-04-03T03:49:53.752Z,89.24
2023-04-03T03:52:20.958Z,89.36
2023-04-03T03:54:48.011Z,89.34
2023-04-03T03:57:17.298Z,89.33
2023-04-03T03:59:45.292Z,89.21
2023-04-03T04:02:12.756Z,89.31
2023-04-03T04:04:39.802Z,89.16
2023-04-03T04:07:07.040Z,89.31
2023-04-03T04:09:35.261Z,89.17
2023-04-03T04:12:02.538Z,89.32
2023-04-03T04:14:31.810Z,89.37
2023-04-03T04:16:59.344Z,89.46
2023-04-03T04:19:28.269Z,89.39
2023-04-03T04:21:55.303Z,89.35
2023-04-03T04:24:23.805Z,89.18
2023-04-03T04:26:53.248Z,89.19
2023-04-03T04:29:21.817Z,89.18
2023-04-03T04:31:51.230Z,89.14
2023-04-03T04:34:18.410Z,89.21
2023-04-03T04:36:45.481Z,89.01
2023-04-03T04:39:12.696Z,89.02
2023-04-03T04:41:40.822Z,88.85
2023-04-03T04:44:08.013Z,88.80
2023-04-03T04:46:36.509Z,88.72
2023-04-03T04:49:04.086Z,89.89
2023-04-03T04:51:41.064Z,91.33
2023-04-03T04:54:12.742Z,91.63
2023-04-03T04:56:40.364Z,90.97
2023-04-03T04:59:08.370Z,90.57
2023-04-03T05:01:36.928Z,90.45
2023-04-03T05:04:10.124Z,89.29
2023-04-03T05:06:37.133Z,88.65
2023-04-03T05:09:08.243Z,87.56
2023-04-03T05:11:36.457Z,87.52
2023-04-03T05:14:09.345Z,86.95
2023-04-03T05:16:37.323Z,86.32
2023-04-03T05:19:04.774Z,86.57
2023-04-03T05:21:33.518Z,86.00
2023-04-03T05:24:05.433Z,85.57
2023-04-03T05:26:34.914Z,85.07
2023-04-03T05:29:04.940Z,84.78
2023-04-03T05:31:32.596Z,84.42
2023-04-03T05:34:00.116Z,83.96
2023-04-03T05:36:29.625Z,83.94
2023-04-03T05:39:01.510Z,84.04
2023-04-03T05:41:28.969Z,83.98
2023-04-03T05:43:56.273Z,83.99
2023-04-03T05:46:28.602Z,83.92
2023-04-03T05:48:59.080Z,84.09
2023-04-03T05:51:37.016Z,84.48
2023-04-03T05:54:30.416Z,84.41
2023-04-03T05:57:07.300Z,84.42
2023-04-03T05:59:34.388Z,84.33
2023-04-03T06:02:02.142Z,84.33
2023-04-03T06:04:29.220Z,83.83
2023-04-03T06:06:58.647Z,83.62
2023-04-03T06:09:29.979Z,83.21
2023-04-03T06:11:59.616Z,83.24
2023-04-03T06:14:28.187Z,82.64
2023-04-03T06:16:55.918Z,82.03
2023-04-03T06:19:23.937Z,81.85
2023-04-03T06:21:54.525Z,82.12
2023-04-03T06:24:23.826Z,81.42
2023-04-03T06:26:52.314Z,81.51
2023-04-03T06:29:21.153Z,80.98
2023-04-03T06:31:49.178Z,81.13
2023-04-03T06:34:17.011Z,80.81
2023-04-03T06:36:46.083Z,79.97
2023-04-03T06:39:17.853Z,79.67
2023-04-03T06:41:45.607Z,79.71
2023-04-03T06:44:14.120Z,79.72
2023-04-03T06:46:41.277Z,79.29
2023-04-03T06:49:08.785Z,79.43
2023-04-03T06:51:39.125Z,78.98
2023-04-03T06:54:09.232Z,78.53
2023-04-03T06:56:36.808Z,78.32
2023-04-03T06:59:04.456Z,78.24
2023-04-03T07:01:32.697Z,77.56
2023-04-03T07:03:59.956Z,76.37
2023-04-03T07:06:29.856Z,76.34
2023-04-03T07:08:57.042Z,75.58
2023-04-03T07:11:24.759Z,76.03
2023-04-03T07:13:52.131Z,75.83
2023-04-03T07:16:20.734Z,75.14
2023-04-03T07:18:47.863Z,74.79
2023-04-03T07:21:15.295Z,74.64
2023-04-03T07:23:42.331Z,74.60
2023-04-03T07:26:10.183Z,72.87
2023-04-03T07:28:37.729Z,72.14
2023-04-03T07:31:13.082Z,71.89
2023-04-03T07:33:41.838Z,71.53
2023-04-03T07:36:12.095Z,71.29
2023-04-03T07:38:39.090Z,70.74
2023-04-03T07:41:06.811Z,70.41
2023-04-03T07:43:35.299Z,70.12
2023-04-03T07:46:02.438Z,69.97
2023-04-03T07:48:29.556Z,69.33
2023-04-03T07:51:01.835Z,69.25
2023-04-03T07:53:29.714Z,69.80
2023-04-03T07:56:01.428Z,68.81
2023-04-03T07:58:28.386Z,67.20
2023-04-03T08:00:55.422Z,67.16
2023-04-03T08:03:23.570Z,66.74
2023-04-03T08:05:51.859Z,66.53
2023-04-03T08:08:24.110Z,65.70
2023-04-03T08:10:53.703Z,65.14
2023-04-03T08:13:22.399Z,64.00
2023-04-03T08:15:49.429Z,63.71
2023-04-03T08:18:17.262Z,64.65
2023-04-03T08:20:44.635Z,62.92
2023-04-03T08:23:12.222Z,62.04
2023-04-03T08:25:43.871Z,61.75
2023-04-03T08:28:12.899Z,62.03
2023-04-03T08:30:42.315Z,60.82
2023-04-03T08:33:10.249Z,59.86
2023-04-03T08:35:42.436Z,59.58
2023-04-03T08:38:11.555Z,57.85
2023-04-03T08:40:46.465Z,57.75
2023-04-03T08:43:32.228Z,54.33
2023-04-03T08:46:07.118Z,53.46
2023-04-03T08:48:40.278Z,53.30
2023-04-03T08:51:21.137Z,53.01
2023-04-03T08:54:05.253Z,50.17
2023-04-03T08:56:35.823Z,50.62
2023-04-03T08:59:14.852Z,50.65
2023-04-03T09:01:43.930Z,50.04
2023-04-03T09:04:20.818Z,49.62
2023-04-03T09:06:58.581Z,48.50
2023-04-03T09:09:43.593Z,48.70
2023-04-03T09:12:27.529Z,46.49
2023-04-03T09:15:16.441Z,44.72
2023-04-03T09:18:12.703Z,42.99
2023-04-03T09:20:58.309Z,42.17
2023-04-03T09:23:39.184Z,41.01
2023-04-03T09:26:20.778Z,39.92
2023-04-03T09:28:50.820Z,41.38
2023-04-03T09:31:30.671Z,40.36
2023-04-03T09:34:10.871Z,40.34
2023-04-03T09:36:49.037Z,39.16
2023-04-03T09:39:21.391Z,40.03
2023-04-03T09:42:05.361Z,40.17
2023-04-03T09:44:33.881Z,38.56
2023-04-03T09:47:19.691Z,37.48
2023-04-03T09:49:47.044Z,36.77
2023-04-03T09:52:45.520Z,36.16
2023-04-03T09:55:30.810Z,36.09
2023-04-03T09:58:23.346Z,34.51
2023-04-03T10:00:58.435Z,34.62
2023-04-03T10:03:36.334Z,32.96
2023-04-03T10:06:04.977Z,33.46
2023-04-03T10:08:35.700Z,34.10
2023-04-03T10:11:12.227Z,33.81
2023-04-03T10:14:05.919Z,33.32
2023-04-03T10:16:45.798Z,34.73
2023-04-03T10:19:44.477Z,34.48
2023-04-03T10:22:26.242Z,34.02
2023-04-03T10:25:26.870Z,34.30
2023-04-03T10:28:01.632Z,35.38
2023-04-03T10:30:59.391Z,36.29
2023-04-03T10:33:45.223Z,33.31
2023-04-03T10:37:08.642Z,35.16
2023-04-03T10:40:25.289Z,35.03
2023-04-03T10:43:07.583Z,34.47
2023-04-03T10:46:13.415Z,35.03
2023-04-03T10:48:58.644Z,35.28
2023-04-03T10:51:48.480Z,33.04
2023-04-03T10:54:37.589Z,34.19
2023-04-03T10:57:12.512Z,34.30
2023-04-03T10:59:54.983Z,33.36
2023-04-03T11:02:51.025Z,33.06
2023-04-03T11:05:38.652Z,34.26
2023-04-03T11:08:40.492Z,34.34
2023-04-03T11:11:15.004Z,32.20
2023-04-03T11:13:51.153Z,31.79
2023-04-03T11:16:43.629Z,32.69
2023-04-03T11:19:36.307Z,33.14
2023-04-03T11:23:15.242Z,34.71
2023-04-03T11:25:46.273Z,34.74
2023-04-03T11:28:15.376Z,33.54
2023-04-03T11:31:26.423Z,33.88
2023-04-03T11:34:18.762Z,34.18
2023-04-03T11:36:53.747Z,35.33
2023-04-03T11:39:29.580Z,35.59
2023-04-03T11:42:06.739Z,35.01
2023-04-03T11:44:40.428Z,35.09
2023-04-03T11:47:11.343Z,33.06
2023-04-03T11:50:06.268Z,34.18
2023-04-03T11:52:41.494Z,33.28
2023-04-03T11:55:22.563Z,33.67
2023-04-03T11:58:02.070Z,34.54
2023-04-03T12:00:44.487Z,34.25
2023-04-03T12:03:26.522Z,33.18
2023-04-03T12:06:05.595Z,33.26
2023-04-03T12:08:48.208Z,33.88
2023-04-03T12:11:31.242Z,35.08
2023-04-03T12:14:01.266Z,33.99
2023-04-03T12:16:40.485Z,34.10
2023-04-03T12:19:17.048Z,33.94
2023-04-03T12:21:49.838Z,35.50
2023-04-03T12:24:16.937Z,34.27
2023-04-03T12:27:18.215Z,34.25
2023-04-03T12:29:54.086Z,34.06
2023-04-03T12:32:37.649Z,35.09
2023-04-03T12:35:42.097Z,33.78
2023-04-03T12:38:42.217Z,34.64
2023-04-03T12:41:31.533Z,34.97
2023-04-03T12:44:27.150Z,34.65
2023-04-03T12:46:55.027Z,34.44
2023-04-03T12:49:31.183Z,35.84
2023-04-03T12:51:59.718Z,35.48
2023-04-03T12:54:41.450Z,35.00
2023-04-03T12:57:28.724Z,35.19
2023-04-03T12:59:56.244Z,35.82
2023-04-03T13:02:34.806Z,34.48
2023-04-03T13:05:15.698Z,34.20
2023-04-03T13:07:44.494Z,35.06
2023-04-03T13:10:11.539Z,36.81
2023-04-03T13:12:49.750Z,36.26
2023-04-03T13:15:50.283Z,35.93
2023-04-03T13:18:27.144Z,35.68
2023-04-03T13:21:04.055Z,34.88
2023-04-03T13:23:33.072Z,34.68
2023-04-03T13:26:04.483Z,33.69
2023-04-03T13:28:34.355Z,33.52
2023-04-03T13:31:32.930Z,34.20
2023-04-03T13:34:17.781Z,35.15
2023-04-03T13:37:05.435Z,33.54
2023-04-03T13:39:37.870Z,33.94
2023-04-03T13:42:30.750Z,35.47
2023-04-03T13:45:27.221Z,34.92
2023-04-03T13:48:23.102Z,35.54
2023-04-03T13:51:11.750Z,34.62
2023-04-03T13:54:22.818Z,34.29
2023-04-03T13:56:59.795Z,34.32
2023-04-03T13:59:36.366Z,34.59
2023-04-03T14:02:03.387Z,34.56
2023-04-03T14:04:46.947Z,34.31
2023-04-03T14:07:17.045Z,35.05
2023-04-03T14:09:44.186Z,35.11
2023-04-03T14:12:32.639Z,33.96
2023-04-03T14:15:03.002Z,35.47
2023-04-03T14:17:30.778Z,35.34
2023-04-03T14:19:59.756Z,34.08
2023-04-03T14:22:35.841Z,34.47
2023-04-03T14:25:04.169Z,33.94
2023-04-03T14:27:40.546Z,33.07
2023-04-03T14:30:15.678Z,32.94
2023-04-03T14:32:43.777Z,34.09
2023-04-03T14:35:10.965Z,33.50
2023-04-03T14:37:38.573Z,33.97
2023-04-03T14:40:08.899Z,35.22
2023-04-03T14:42:38.438Z,34.97
2023-04-03T14:45:11.612Z,35.88
2023-04-03T14:47:48.476Z,36.32
2023-04-03T14:50:22.130Z,35.49
2023-04-03T14:52:55.031Z,35.59
2023-04-03T14:55:25.880Z,34.96
2023-04-03T14:57:54.542Z,35.66
2023-04-03T15:00:23.881Z,34.95
2023-04-03T15:02:51.233Z,35.82
2023-04-03T15:05:20.510Z,35.41
2023-04-03T15:07:59.006Z,35.40
2023-04-03T15:10:30.584Z,34.77
2023-04-03T15:12:58.642Z,36.33
2023-04-03T15:15:30.950Z,35.70
2023-04-03T15:17:59.102Z,35.96
2023-04-03T15:20:31.430Z,36.01
2023-04-03T15:23:01.680Z,36.08
2023-04-03T15:25:30.310Z,35.43
2023-04-03T15:27:58.473Z,35.77
2023-04-03T15:30:25.622Z,35.71
2023-04-03T15:32:54.138Z,35.52
2023-04-03T15:35:21.276Z,36.20
2023-04-03T15:37:49.196Z,37.07
2023-04-03T15:40:16.607Z,36.45
2023-04-03T15:42:43.742Z,35.48
2023-04-03T15:45:11.378Z,35.77
2023-04-03T15:47:39.416Z,35.97
2023-04-03T15:50:08.706Z,36.04
2023-04-03T15:52:36.637Z,36.53
2023-04-03T15:55:05.550Z,36.35
2023-04-03T16:00:06.937Z,36.87
2023-04-03T16:02:35.068Z,36.71
2023-04-03T16:05:03.315Z,36.80
2023-04-03T16:07:30.527Z,37.34
2023-04-03T16:09:57.793Z,37.42
2023-04-03T16:12:24.829Z,37.91
2023-04-03T16:14:52.671Z,37.68
2023-04-03T16:17:19.812Z,37.85
2023-04-03T16:19:46.867Z,38.22
2023-04-03T16:22:14.172Z,39.48
2023-04-03T16:24:41.567Z,38.59
2023-04-03T16:27:08.619Z,38.09
2023-04-03T16:29:36.169Z,38.19
2023-04-03T16:32:05.176Z,38.49
2023-04-03T16:34:33.347Z,38.92
2023-04-03T16:37:01.374Z,38.89
2023-04-03T16:39:28.491Z,39.00
2023-04-03T16:41:55.588Z,38.39
2023-04-03T16:44:22.677Z,38.83
2023-04-03T16:46:50.847Z,39.17
2023-04-03T16:49:18.159Z,39.26
2023-04-03T16:51:46.058Z,39.62
2023-04-03T16:54:14.487Z,40.40
2023-04-03T16:56:41.725Z,40.40
2023-04-03T16:59:09.177Z,39.24
2023-04-03T17:01:36.203Z,39.40
2023-04-03T17:04:03.246Z,39.28
2023-04-03T17:06:30.415Z,38.65
2023-04-03T17:08:57.433Z,39.53
2023-04-03T17:11:31.773Z,39.43
2023-04-03T17:13:59.382Z,39.68
2023-04-03T17:16:27.902Z,39.93
2023-04-03T17:18:56.447Z,40.37
2023-04-03T17:21:23.990Z,40.00
2023-04-03T17:23:58.741Z,39.73
2023-04-03T17:26:27.239Z,39.87
2023-04-03T17:28:54.556Z,40.13
2023-04-03T17:31:21.737Z,40.72
2023-04-03T17:33:49.394Z,40.90
2023-04-03T17:36:16.457Z,41.08
2023-04-03T17:38:43.452Z,41.53
2023-04-03T17:41:10.781Z,42.20
2023-04-03T17:43:37.987Z,42.56
2023-04-03T17:46:09.691Z,43.08
2023-04-03T17:48:40.995Z,43.02
2023-04-03T17:51:14.922Z,43.31
2023-04-03T17:53:44.397Z,43.75
2023-04-03T17:56:23.093Z,44.14
2023-04-03T17:58:51.669Z,44.39
2023-04-03T18:01:31.873Z,44.54
2023-04-03T18:04:03.108Z,44.83
2023-04-03T18:06:40.219Z,45.32
2023-04-03T18:09:12.677Z,45.49
2023-04-03T18:11:39.705Z,46.03
2023-04-03T18:14:09.090Z,46.45
2023-04-03T18:16:36.772Z,47.16
2023-04-03T18:19:22.072Z,47.33
2023-04-03T18:22:00.572Z,47.50
2023-04-03T18:24:29.099Z,47.81
2023-04-03T18:27:02.073Z,48.37
2023-04-03T18:29:35.135Z,48.31
2023-04-03T18:32:04.492Z,48.64
2023-04-03T18:34:32.520Z,48.89
2023-04-03T18:37:00.203Z,48.94
2023-04-03T18:39:27.824Z,49.22
2023-04-03T18:42:00.859Z,49.49
2023-04-03T18:44:28.408Z,49.83
2023-04-03T18:46:56.917Z,50.02
2023-04-03T18:49:24.389Z,50.46
2023-04-03T18:51:51.472Z,50.41
2023-04-03T18:54:18.558Z,50.67
2023-04-03T18:56:45.471Z,50.72
2023-04-03T18:59:12.692Z,50.65
2023-04-03T19:01:40.685Z,50.95
2023-04-03T19:04:08.020Z,51.08
2023-04-03T19:06:37.472Z,51.35
2023-04-03T19:09:08.237Z,51.70
2023-04-03T19:11:36.535Z,51.77
2023-04-03T19:14:15.179Z,51.88
2023-04-03T19:16:45.018Z,52.04
2023-04-03T19:19:12.647Z,52.38
2023-04-03T19:21:41.446Z,52.38
2023-04-03T19:24:12.980Z,52.70
2023-04-03T19:26:42.438Z,52.92
2023-04-03T19:29:10.374Z,52.86
2023-04-03T19:31:40.694Z,53.10
2023-04-03T19:34:08.728Z,53.33
2023-04-03T19:36:36.994Z,53.41
2023-04-03T19:39:08.172Z,53.50
2023-04-03T19:41:37.120Z,53.81
2023-04-03T19:44:07.257Z,54.07
2023-04-03T19:46:35.619Z,54.15
2023-04-03T19:49:03.154Z,54.43
2023-04-03T19:51:30.508Z,54.55
2023-04-03T19:53:57.489Z,54.75
2023-04-03T19:56:24.569Z,54.97
2023-04-03T19:58:54.189Z,55.18
2023-04-03T20:01:24.614Z,55.42
2023-04-03T20:03:52.247Z,55.63
2023-04-03T20:06:19.444Z,55.68
2023-04-03T20:08:46.687Z,55.65
2023-04-03T20:11:13.947Z,55.97
2023-04-03T20:13:40.967Z,56.30
2023-04-03T20:16:09.123Z,56.38
2023-04-03T20:18:36.875Z,56.35
2023-04-03T20:21:06.835Z,56.22
2023-04-03T20:23:36.429Z,56.74
2023-04-03T20:26:11.698Z,57.21
2023-04-03T20:28:42.967Z,57.37
2023-04-03T20:31:11.990Z,57.59
2023-04-03T20:33:39.156Z,58.07
2023-04-03T20:36:06.433Z,58.37
2023-04-03T20:38:33.424Z,58.57
2023-04-03T20:41:00.770Z,58.59
2023-04-03T20:43:28.661Z,58.91
2023-04-03T20:45:55.824Z,59.38
2023-04-03T20:48:23.581Z,59.63
2023-04-03T20:50:50.930Z,59.95
2023-04-03T20:53:19.074Z,60.06
2023-04-03T20:56:16.006Z,60.43
2023-04-03T20:58:45.366Z,60.55
2023-04-03T21:01:18.622Z,60.79
2023-04-03T21:03:47.284Z,61.02
2023-04-03T21:07:10.811Z,61.52
2023-04-03T21:10:35.684Z,61.44
2023-04-03T21:14:01.061Z,61.77
2023-04-03T21:16:28.084Z,62.08
2023-04-03T21:19:15.930Z,62.31
2023-04-03T21:21:45.648Z,62.39
2023-04-03T21:24:16.860Z,62.71
2023-04-03T21:26:45.228Z,62.76
2023-04-03T21:29:12.724Z,62.77
2023-04-03T21:32:00.444Z,62.91
2023-04-03T21:34:31.668Z,63.00
2023-04-03T21:37:09.556Z,63.11
2023-04-03T21:39:36.682Z,63.25
2023-04-03T21:42:03.879Z,63.43
2023-04-03T21:44:30.931Z,63.67
2023-04-03T21:46:57.949Z,63.88
2023-04-03T21:49:25.806Z,64.19
2023-04-03T21:51:52.917Z,64.34
2023-04-03T21:54:20.702Z,64.45
2023-04-03T21:56:48.393Z,64.81
2023-04-03T21:59:15.919Z,65.14
2023-04-03T22:01:43.644Z,65.51
2023-04-03T22:04:10.975Z,65.88
2023-04-03T22:06:38.132Z,66.60
2023-04-03T22:09:05.705Z,66.91
2023-04-03T22:11:32.910Z,66.78
2023-04-03T22:14:00.184Z,66.70
2023-04-03T22:16:27.458Z,66.38
2023-04-03T22:18:56.125Z,66.24
2023-04-03T22:21:23.267Z,66.34
2023-04-03T22:23:50.687Z,66.53
2023-04-03T22:26:17.702Z,66.85
2023-04-03T22:28:47.208Z,67.05
2023-04-03T22:31:16.383Z,67.43
2023-04-03T22:33:45.502Z,67.47
2023-04-03T22:36:14.125Z,67.81
2023-04-03T22:38:44.866Z,67.88
2023-04-03T22:41:12.079Z,68.18
2023-04-03T22:43:39.974Z,68.82
2023-04-03T22:46:09.509Z,68.85
2023-04-03T22:48:40.748Z,68.92
2023-04-03T22:51:08.437Z,69.24
2023-04-03T22:53:36.685Z,69.52
2023-04-03T22:56:11.045Z,69.44
2023-04-03T22:58:38.917Z,69.21
2023-04-03T23:01:12.061Z,69.51
2023-04-03T23:03:42.366Z,69.64
2023-04-03T23:06:10.425Z,69.89
2023-04-03T23:08:43.813Z,70.06
2023-04-03T23:11:10.804Z,70.18
2023-04-03T23:13:38.428Z,70.09
2023-04-03T23:16:05.904Z,70.42
2023-04-03T23:18:33.461Z,70.56
2023-04-03T23:21:03.517Z,70.66
2023-04-03T23:23:31.221Z,70.84
2023-04-03T23:26:01.454Z,70.84
2023-04-03T23:28:29.573Z,71.18
2023-04-03T23:31:02.867Z,71.22
2023-04-03T23:33:32.634Z,71.40
2023-04-03T23:36:07.295Z,71.55
2023-04-03T23:38:35.042Z,71.64
2023-04-03T23:41:02.212Z,71.67
2023-04-03T23:43:29.308Z,71.67
2023-04-03T23:45:56.371Z,71.81
2023-04-03T23:48:23.365Z,72.09
2023-04-03T23:50:50.624Z,71.96
2023-04-03T23:53:18.492Z,72.14
2023-04-03T23:55:45.608Z,72.07
2023-04-03T23:58:12.595Z,72.17
